Time;durP1;ratioP1;P1;durP2;ratioP2;P2;SDS_P1;SDS_P2;PMS_P1;PMS_P2;Temp;Humidity;BMP_temperature;BMP_pressure;BME280_temperature;BME280_humidity;BME280_pressure;Samples;Min_cycle;Max_cycle;Signal;HPM_P1;HPM_P2
2021/12/07 00:01:37;;;;;;;46.20;22.83;;;2.00;99.90;;;;;;4826250;29;20125;-81
2021/12/07 00:04:04;;;;;;;49.95;22.98;;;2.00;99.90;;;;;;4826128;29;20115;-82
2021/12/07 00:06:30;;;;;;;52.22;23.17;;;2.00;99.90;;;;;;4846067;29;20548;-82
2021/12/07 00:08:56;;;;;;;47.78;21.80;;;1.90;99.90;;;;;;4829676;29;20049;-82
2021/12/07 00:11:28;;;;;;;46.90;20.67;;;1.90;99.90;;;;;;4829861;29;20136;-82
2021/12/07 00:13:57;;;;;;;47.03;21.67;;;1.80;99.90;;;;;;4829810;29;20042;-82
2021/12/07 00:16:23;;;;;;;52.13;23.05;;;1.80;99.90;;;;;;4829267;29;20058;-82
2021/12/07 00:18:49;;;;;;;47.92;23.38;;;1.80;99.90;;;;;;4829858;29;20046;-81
2021/12/07 00:21:17;;;;;;;35.95;17.80;;;1.70;99.90;;;;;;4829564;29;20147;-81
2021/12/07 00:23:45;;;;;;;46.63;19.88;;;1.60;99.90;;;;;;4829537;29;20058;-81
2021/12/07 00:26:12;;;;;;;45.53;21.55;;;1.60;99.90;;;;;;4845866;29;20057;-82
2021/12/07 00:28:38;;;;;;;43.95;21.42;;;1.60;99.90;;;;;;4845793;29;20057;-81
2021/12/07 00:31:20;;;;;;;46.10;21.48;;;1.60;99.90;;;;;;4844433;29;20085;-82
2021/12/07 00:36:38;;;;;;;37.80;18.58;;;1.60;99.90;;;;;;4803342;29;20061;-82
2021/12/07 00:39:06;;;;;;;48.95;21.23;;;1.60;99.90;;;;;;4829331;29;20061;-81
2021/12/07 00:41:32;;;;;;;47.13;22.27;;;1.60;99.90;;;;;;4844156;29;20062;-82
2021/12/07 00:43:58;;;;;;;50.58;23.23;;;1.60;99.90;;;;;;4828932;29;20066;-81
2021/12/07 00:46:26;;;;;;;51.70;22.67;;;1.50;99.90;;;;;;4845394;29;20132;-81
2021/12/07 00:48:52;;;;;;;43.20;19.67;;;1.50;99.90;;;;;;4828859;29;20049;-81
2021/12/07 00:51:17;;;;;;;48.55;21.80;;;1.50;99.90;;;;;;4845423;29;20052;-81
2021/12/07 00:53:43;;;;;;;53.75;23.63;;;1.50;99.90;;;;;;4828674;29;20049;-81
2021/12/07 00:56:09;;;;;;;46.15;22.25;;;1.50;99.90;;;;;;4828604;29;20046;-81
2021/12/07 00:58:35;;;;;;;48.00;21.27;;;1.50;99.90;;;;;;4845199;29;20050;-81
2021/12/07 01:01:06;;;;;;;54.83;23.60;;;1.50;99.90;;;;;;4828923;29;20038;-81
2021/12/07 01:03:33;;;;;;;45.45;21.48;;;1.50;99.90;;;;;;4844193;29;20078;-81
2021/12/07 01:25:03;;;;;;;40.55;19.25;;;1.50;99.90;;;;;;4828160;29;20064;-81
2021/12/07 01:27:29;;;;;;;44.78;20.98;;;1.50;99.90;;;;;;4828185;29;20058;-81
2021/12/07 01:30:07;;;;;;;44.90;21.27;;;1.50;99.90;;;;;;4828400;29;20135;-81
2021/12/07 01:38:01;;;;;;;40.03;18.55;;;1.50;99.90;;;;;;4828292;29;20062;-81
2021/12/07 01:41:17;;;;;;;44.45;18.55;;;1.50;99.90;;;;;;4844801;29;20057;-81
2021/12/07 01:43:54;;;;;;;43.80;19.83;;;1.50;99.90;;;;;;4836413;29;20049;-81
2021/12/07 02:00:15;;;;;;;27.80;14.40;;;1.40;99.90;;;;;;4787497;30;20051;-81
2021/12/07 02:02:42;;;;;;;35.17;16.75;;;1.40;99.90;;;;;;4772848;30;20535;-82
2021/12/07 02:05:09;;;;;;;37.40;16.58;;;1.40;99.90;;;;;;4799518;29;20062;-82
2021/12/07 02:07:35;;;;;;;41.70;17.27;;;1.40;99.90;;;;;;4842815;29;20062;-81
2021/12/07 02:10:07;;;;;;;42.67;18.65;;;1.40;99.90;;;;;;4827701;29;20052;-82
2021/12/07 02:12:42;;;;;;;37.40;17.60;;;1.40;99.90;;;;;;4827606;29;20402;-81
2021/12/07 02:15:16;;;;;;;48.88;19.80;;;1.40;99.90;;;;;;4844613;29;20299;-81
2021/12/07 02:17:42;;;;;;;41.08;17.58;;;1.40;99.90;;;;;;4843984;29;20057;-81
2021/12/07 02:20:10;;;;;;;41.60;18.15;;;1.50;99.90;;;;;;4827481;29;20141;-81
2021/12/07 02:22:36;;;;;;;36.83;16.80;;;1.50;99.90;;;;;;4827740;29;20495;-81
2021/12/07 02:25:05;;;;;;;37.80;16.15;;;1.50;99.90;;;;;;4827426;29;20046;-81
2021/12/07 02:27:30;;;;;;;40.75;16.90;;;1.50;99.90;;;;;;4843326;29;20053;-81
2021/12/07 02:29:56;;;;;;;43.63;17.80;;;1.40;99.90;;;;;;4843527;29;20049;-81
2021/12/07 02:32:22;;;;;;;34.67;14.88;;;1.50;99.90;;;;;;4827507;29;20049;-81
2021/12/07 02:34:57;;;;;;;30.63;14.13;;;1.50;99.90;;;;;;4827435;29;20053;-81
2021/12/07 02:37:30;;;;;;;43.17;16.95;;;1.50;99.90;;;;;;4843656;29;20076;-81
2021/12/07 02:39:57;;;;;;;34.80;15.15;;;1.50;99.90;;;;;;4843562;29;20106;-81
2021/12/07 02:42:23;;;;;;;33.95;13.13;;;1.50;99.90;;;;;;4843181;29;20069;-81
2021/12/07 02:44:49;;;;;;;32.42;13.98;;;1.60;99.90;;;;;;4827032;29;20054;-81
2021/12/07 02:47:15;;;;;;;31.95;14.02;;;1.60;99.90;;;;;;4843452;29;20079;-81
2021/12/07 02:49:41;;;;;;;34.17;14.60;;;1.60;99.90;;;;;;4843405;29;20137;-81
2021/12/07 02:52:07;;;;;;;35.05;14.48;;;1.60;99.90;;;;;;4843379;29;20135;-81
2021/12/07 02:54:35;;;;;;;31.00;12.98;;;1.60;99.90;;;;;;4827064;29;20042;-81
2021/12/07 02:57:02;;;;;;;32.65;14.00;;;1.60;99.90;;;;;;4843246;29;20090;-81
2021/12/07 02:59:28;;;;;;;33.00;13.95;;;1.60;99.90;;;;;;4843294;29;20042;-81
2021/12/07 03:02:01;;;;;;;33.03;13.35;;;1.60;99.90;;;;;;4827105;29;20046;-81
2021/12/07 03:04:35;;;;;;;30.63;11.90;;;1.60;99.90;;;;;;4843337;29;20125;-81
2021/12/07 03:10:02;;;;;;;29.10;12.98;;;1.60;99.90;;;;;;4843175;29;20042;-82
2021/12/07 03:26:11;;;;;;;26.80;11.88;;;1.70;99.90;;;;;;4842983;29;20058;-81
2021/12/07 03:28:46;;;;;;;28.60;10.73;;;1.70;99.90;;;;;;4826540;29;20062;-81
2021/12/07 03:31:14;;;;;;;23.80;11.10;;;1.70;99.90;;;;;;4841932;29;20068;-82
2021/12/07 03:33:40;;;;;;;27.63;10.52;;;1.70;99.90;;;;;;4841692;29;20065;-82
2021/12/07 03:36:08;;;;;;;26.15;11.43;;;1.60;99.90;;;;;;4826433;29;20053;-81
2021/12/07 03:38:34;;;;;;;26.02;11.63;;;1.70;99.90;;;;;;4826606;29;20038;-81
2021/12/07 03:41:00;;;;;;;25.45;11.95;;;1.60;99.90;;;;;;4829347;29;20184;-82
2021/12/07 03:43:26;;;;;;;22.88;10.35;;;1.60;99.90;;;;;;4846708;29;20037;-82
2021/12/07 03:45:52;;;;;;;24.27;11.27;;;1.60;99.90;;;;;;4830099;29;20097;-82
2021/12/07 03:48:18;;;;;;;26.92;10.52;;;1.60;99.90;;;;;;4830027;29;20077;-81
2021/12/07 03:50:45;;;;;;;26.63;10.88;;;1.60;99.90;;;;;;4829924;29;20049;-81
2021/12/07 03:53:12;;;;;;;25.80;10.90;;;1.60;99.90;;;;;;4830116;29;20494;-81
2021/12/07 03:55:39;;;;;;;25.58;10.82;;;1.60;99.90;;;;;;4829869;29;20050;-82
2021/12/07 03:58:05;;;;;;;22.38;10.32;;;1.60;99.90;;;;;;4846436;29;20046;-81
2021/12/07 04:00:34;;;;;;;22.92;11.10;;;1.60;99.90;;;;;;4846488;29;20046;-82
2021/12/07 04:03:06;;;;;;;27.70;12.48;;;1.60;99.90;;;;;;4829973;29;20054;-82
2021/12/07 04:05:32;;;;;;;27.40;13.05;;;1.60;99.90;;;;;;4829580;29;20549;-82
2021/12/07 04:07:58;;;;;;;26.05;12.07;;;1.60;99.90;;;;;;4846268;29;20126;-81
2021/12/07 04:10:25;;;;;;;32.10;13.05;;;1.60;99.90;;;;;;4846210;29;20129;-81
2021/12/07 04:12:52;;;;;;;28.63;11.23;;;1.60;99.90;;;;;;4846125;29;20097;-81
2021/12/07 04:15:18;;;;;;;23.20;10.60;;;1.60;99.90;;;;;;4829635;29;20049;-82
2021/12/07 04:17:45;;;;;;;25.80;11.38;;;1.60;99.90;;;;;;4846013;29;20087;-81
2021/12/07 04:20:13;;;;;;;22.55;9.40;;;1.60;99.90;;;;;;4844620;29;20410;-81
2021/12/07 04:22:39;;;;;;;23.42;10.25;;;1.60;99.90;;;;;;4829570;29;20064;-82
2021/12/07 04:25:09;;;;;;;25.85;10.48;;;1.60;99.90;;;;;;4829538;29;20427;-82
2021/12/07 04:27:37;;;;;;;25.67;9.50;;;1.60;99.90;;;;;;4829248;29;20196;-81
2021/12/07 04:30:07;;;;;;;23.42;9.80;;;1.70;99.90;;;;;;4829484;29;20046;-82
2021/12/07 04:32:33;;;;;;;24.50;9.77;;;1.70;99.90;;;;;;4829287;29;20065;-82
2021/12/07 04:34:58;;;;;;;25.85;9.55;;;1.80;99.90;;;;;;4829026;29;20473;-81
2021/12/07 04:37:24;;;;;;;24.15;9.15;;;1.80;99.90;;;;;;4829351;29;20103;-81
2021/12/07 04:39:50;;;;;;;20.70;8.90;;;1.80;99.90;;;;;;4845612;29;20413;-81
2021/12/07 04:42:15;;;;;;;23.73;9.52;;;1.80;99.90;;;;;;4845327;29;20050;-82
2021/12/07 04:44:49;;;;;;;21.77;9.88;;;1.80;99.90;;;;;;4828983;29;20137;-82
2021/12/07 04:47:23;;;;;;;26.23;9.38;;;1.90;99.90;;;;;;4845659;29;20110;-82
2021/12/07 04:57:45;;;;;;;21.73;8.93;;;1.90;99.90;;;;;;4828707;29;20479;-81
2021/12/07 05:00:20;;;;;;;17.92;8.02;;;1.80;99.90;;;;;;4845362;29;20053;-81
2021/12/07 05:02:52;;;;;;;19.90;8.45;;;1.80;99.90;;;;;;4845328;29;20088;-82
2021/12/07 05:05:20;;;;;;;21.77;9.65;;;1.80;99.90;;;;;;4829021;29;20380;-82
2021/12/07 05:07:51;;;;;;;20.13;8.50;;;1.70;99.90;;;;;;4828683;29;20054;-82
2021/12/07 05:10:27;;;;;;;16.17;7.18;;;1.70;99.90;;;;;;4828556;29;20061;-82
2021/12/07 05:15:30;;;;;;;17.27;6.43;;;1.70;99.90;;;;;;4843742;29;20061;-82
2021/12/07 05:39:44;;;;;;;19.08;4.28;;;2.40;99.90;;;;;;4844728;29;20046;-81
2021/12/07 05:42:12;;;;;;;12.25;3.25;;;2.50;99.90;;;;;;4843431;29;20066;-81
2021/12/07 05:44:38;;;;;;;13.85;3.25;;;2.60;99.90;;;;;;4828391;29;20046;-81
2021/12/07 05:47:04;;;;;;;6.75;1.83;;;2.70;99.90;;;;;;4828285;29;20050;-81
2021/12/07 05:49:30;;;;;;;16.45;3.13;;;2.70;99.90;;;;;;4844538;29;20406;-81
2021/12/07 05:51:56;;;;;;;11.95;2.08;;;2.80;99.90;;;;;;4828095;29;20478;-81
2021/12/07 05:54:22;;;;;;;7.78;1.20;;;2.90;99.90;;;;;;4844280;29;20050;-81
2021/12/07 05:56:48;;;;;;;7.15;0.90;;;3.00;99.90;;;;;;4844436;29;20053;-81
2021/12/07 05:59:14;;;;;;;6.40;0.70;;;3.10;99.90;;;;;;4844297;29;20164;-81
2021/12/07 06:01:40;;;;;;;5.32;1.40;;;3.10;99.90;;;;;;4827713;29;20054;-81
2021/12/07 06:04:06;;;;;;;11.63;0.95;;;3.10;99.90;;;;;;4842621;29;20061;-81
2021/12/07 06:06:31;;;;;;;7.50;1.20;;;3.10;99.90;;;;;;4827917;29;20046;-81
2021/12/07 06:08:57;;;;;;;10.35;0.93;;;3.10;99.90;;;;;;4827830;29;20402;-82
2021/12/07 06:11:24;;;;;;;9.98;1.20;;;3.00;99.90;;;;;;4827670;29;20073;-82
2021/12/07 06:13:50;;;;;;;9.13;0.90;;;3.00;99.90;;;;;;4827614;29;20062;-82
2021/12/07 06:16:16;;;;;;;7.25;0.85;;;3.00;99.90;;;;;;4843792;29;20066;-82
2021/12/07 06:18:43;;;;;;;9.00;1.98;;;2.90;99.90;;;;;;4843714;29;20098;-82
2021/12/07 06:21:10;;;;;;;11.43;1.45;;;2.90;99.90;;;;;;4843805;29;20069;-82
2021/12/07 06:23:36;;;;;;;9.98;1.58;;;2.90;99.90;;;;;;4828287;29;20129;-82
2021/12/07 06:26:02;;;;;;;5.85;1.10;;;2.90;99.90;;;;;;4843841;29;20578;-81
2021/12/07 06:28:28;;;;;;;7.95;0.85;;;2.90;99.90;;;;;;4827649;29;20442;-82
2021/12/07 06:30:54;;;;;;;8.30;1.58;;;2.90;99.90;;;;;;4827584;29;20050;-81
2021/12/07 06:33:21;;;;;;;10.25;1.50;;;2.80;99.90;;;;;;4843560;29;20050;-81
2021/12/07 06:35:49;;;;;;;11.35;1.83;;;2.80;99.90;;;;;;4843922;29;20054;-81
2021/12/07 06:38:17;;;;;;;8.25;1.50;;;2.80;99.90;;;;;;4827247;29;20073;-81
2021/12/07 06:40:43;;;;;;;8.55;1.38;;;2.80;99.90;;;;;;4843740;29;20058;-81
2021/12/07 06:43:09;;;;;;;4.88;0.80;;;2.80;99.90;;;;;;4843374;29;20066;-82
2021/12/07 06:45:35;;;;;;;4.55;1.02;;;2.80;99.90;;;;;;4843458;29;20053;-81
2021/12/07 06:48:01;;;;;;;4.20;0.93;;;2.80;99.90;;;;;;4843514;29;20124;-81
2021/12/07 06:50:27;;;;;;;8.68;1.30;;;2.70;99.90;;;;;;4827234;29;20050;-81
2021/12/07 06:52:53;;;;;;;4.50;1.10;;;2.70;99.90;;;;;;4843397;29;20167;-81
2021/12/07 06:55:20;;;;;;;4.43;1.20;;;2.70;99.90;;;;;;4826890;29;20133;-81
2021/12/07 06:57:46;;;;;;;10.88;1.80;;;2.70;99.90;;;;;;4843397;29;20057;-81
2021/12/07 07:00:13;;;;;;;8.68;1.33;;;2.70;99.90;;;;;;4827216;29;20054;-81
2021/12/07 07:02:38;;;;;;;10.57;1.40;;;2.70;99.90;;;;;;4843283;29;20072;-81
2021/12/07 07:05:05;;;;;;;5.50;1.23;;;2.70;99.90;;;;;;4843123;29;20046;-82
2021/12/07 07:07:33;;;;;;;9.55;1.95;;;2.60;99.90;;;;;;4843393;29;20107;-81
2021/12/07 07:09:58;;;;;;;7.93;1.27;;;2.60;99.90;;;;;;4843157;29;20065;-81
2021/12/07 07:12:24;;;;;;;9.32;1.55;;;2.60;99.90;;;;;;4842221;29;20391;-81
2021/12/07 07:14:50;;;;;;;12.30;1.70;;;2.60;99.90;;;;;;4842174;29;20505;-82
2021/12/07 07:17:16;;;;;;;7.18;1.45;;;2.60;99.90;;;;;;4826980;29;20171;-81
2021/12/07 07:19:43;;;;;;;9.70;1.55;;;2.60;99.90;;;;;;4841691;29;20504;-82
2021/12/07 07:22:08;;;;;;;8.85;1.92;;;2.60;99.90;;;;;;4826728;29;20050;-82
2021/12/07 07:24:34;;;;;;;11.02;1.52;;;2.50;99.90;;;;;;4826325;29;20129;-82
2021/12/07 07:27:01;;;;;;;6.03;1.67;;;2.50;99.90;;;;;;4825090;29;20133;-81
2021/12/07 07:29:27;;;;;;;7.70;1.27;;;2.50;99.90;;;;;;4826314;29;20046;-81
2021/12/07 07:31:53;;;;;;;10.45;1.85;;;2.50;99.90;;;;;;4841668;29;20062;-81
2021/12/07 07:34:19;;;;;;;9.38;1.92;;;2.50;99.90;;;;;;4842837;29;20054;-82
2021/12/07 07:36:44;;;;;;;9.93;1.50;;;2.50;99.90;;;;;;4826267;29;20118;-82
2021/12/07 07:39:10;;;;;;;10.73;1.65;;;2.50;99.90;;;;;;4842777;29;20057;-82
2021/12/07 07:41:37;;;;;;;9.13;1.25;;;2.50;99.90;;;;;;4842519;29;20068;-82
2021/12/07 07:44:03;;;;;;;4.45;1.35;;;2.50;99.90;;;;;;4842516;29;20490;-82
2021/12/07 07:46:29;;;;;;;4.97;1.23;;;2.40;99.90;;;;;;4842748;29;20042;-82
2021/12/07 07:48:54;;;;;;;5.00;1.38;;;2.40;99.90;;;;;;4841567;29;20054;-82
2021/12/07 07:51:20;;;;;;;7.78;1.67;;;2.40;99.90;;;;;;4842788;29;20066;-82
2021/12/07 07:53:46;;;;;;;7.97;1.95;;;2.40;99.90;;;;;;4826091;29;20126;-82
2021/12/07 07:56:12;;;;;;;6.70;1.67;;;2.40;99.90;;;;;;4841311;29;20524;-82
2021/12/07 07:58:37;;;;;;;19.33;1.92;;;2.30;99.90;;;;;;4841446;29;20050;-82
2021/12/07 08:01:04;;;;;;;8.80;2.75;;;2.40;99.90;;;;;;4826001;29;20058;-81
2021/12/07 08:03:30;;;;;;;6.55;1.95;;;2.50;99.90;;;;;;4826342;29;20080;-82
2021/12/07 08:05:56;;;;;;;8.13;1.55;;;2.50;99.90;;;;;;4826078;29;20042;-82
2021/12/07 08:08:22;;;;;;;8.77;1.65;;;2.50;99.90;;;;;;4841580;29;20058;-82
2021/12/07 08:10:48;;;;;;;11.52;1.90;;;2.50;99.90;;;;;;4807120;29;20081;-82
2021/12/07 08:13:14;;;;;;;7.38;2.10;;;2.50;99.90;;;;;;4792550;29;20054;-81
2021/12/07 08:15:43;;;;;;;10.20;2.50;;;2.50;99.90;;;;;;4804441;29;20061;-81
2021/12/07 08:18:11;;;;;;;6.95;2.55;;;2.60;99.90;;;;;;4805681;29;20138;-81
2021/12/07 08:20:38;;;;;;;9.93;2.65;;;2.60;99.90;;;;;;4805706;29;20050;-80
2021/12/07 08:23:04;;;;;;;11.73;3.03;;;2.60;99.90;;;;;;4805667;29;20496;-80
2021/12/07 08:25:33;;;;;;;10.25;2.75;;;2.50;99.90;;;;;;4789941;29;20059;-80
2021/12/07 08:27:59;;;;;;;14.45;3.20;;;2.60;99.90;;;;;;4808150;29;20062;-80
2021/12/07 08:30:25;;;;;;;9.70;2.95;;;2.60;99.90;;;;;;4807870;29;20051;-81
2021/12/07 08:32:51;;;;;;;13.75;3.08;;;2.60;99.90;;;;;;4792897;29;20108;-81
2021/12/07 08:35:19;;;;;;;9.60;3.10;;;2.60;99.90;;;;;;4792564;29;20480;-81
2021/12/07 08:37:48;;;;;;;9.15;2.58;;;2.60;99.90;;;;;;4807994;29;20062;-81
2021/12/07 08:40:29;;;;;;;13.65;3.33;;;2.60;99.90;;;;;;4808739;29;20130;-81
2021/12/07 08:42:55;;;;;;;12.90;2.60;;;2.70;99.90;;;;;;4819690;29;20062;-82
2021/12/07 08:45:23;;;;;;;14.90;3.00;;;2.70;99.90;;;;;;4825835;29;20043;-81
2021/12/07 08:47:49;;;;;;;14.85;3.63;;;2.70;99.90;;;;;;4826930;29;20050;-81
2021/12/07 08:50:19;;;;;;;18.67;3.22;;;2.80;99.90;;;;;;4826738;29;20046;-81
2021/12/07 08:52:47;;;;;;;17.73;3.03;;;2.80;99.90;;;;;;4825328;29;20107;-82
2021/12/07 09:00:27;;;;;;;7.78;3.33;;;2.90;99.90;;;;;;4826602;29;20575;-81
2021/12/07 09:02:53;;;;;;;15.70;4.72;;;2.90;99.90;;;;;;4825200;29;20058;-81
2021/12/07 09:05:19;;;;;;;17.63;5.35;;;3.00;99.90;;;;;;4825445;29;20046;-82
2021/12/07 09:07:46;;;;;;;16.42;4.90;;;3.10;99.90;;;;;;4830340;29;20076;-82
2021/12/07 09:10:12;;;;;;;11.27;3.92;;;3.10;99.90;;;;;;4843384;29;20046;-82
2021/12/07 09:12:38;;;;;;;21.02;4.82;;;3.20;99.90;;;;;;4843417;29;20422;-82
2021/12/07 09:15:04;;;;;;;16.40;4.05;;;3.20;99.90;;;;;;4843571;29;20513;-81
2021/12/07 09:17:30;;;;;;;12.68;3.58;;;3.30;99.90;;;;;;4843615;29;20146;-81
2021/12/07 09:19:56;;;;;;;18.30;4.43;;;3.30;99.90;;;;;;4843533;29;20396;-81
2021/12/07 09:22:23;;;;;;;15.13;4.20;;;3.40;99.90;;;;;;4844706;29;20538;-81
2021/12/07 09:24:48;;;;;;;17.42;4.35;;;3.50;99.90;;;;;;4843199;29;20489;-81
2021/12/07 09:27:15;;;;;;;21.10;4.75;;;3.50;99.90;;;;;;4843269;29;20053;-81
2021/12/07 09:29:41;;;;;;;13.68;4.28;;;3.50;99.90;;;;;;4842749;29;20065;-81
2021/12/07 09:32:06;;;;;;;13.38;3.88;;;3.60;99.90;;;;;;4842939;29;20053;-81
2021/12/07 09:34:32;;;;;;;17.33;4.22;;;3.70;99.90;;;;;;4844249;29;20058;-81
2021/12/07 09:36:58;;;;;;;12.75;3.50;;;3.80;99.90;;;;;;4841352;29;20053;-81
2021/12/07 09:39:24;;;;;;;12.00;3.90;;;3.90;99.90;;;;;;4842459;29;20049;-83
2021/12/07 09:41:50;;;;;;;17.35;3.83;;;4.00;99.90;;;;;;4840787;29;20337;-81
2021/12/07 09:44:16;;;;;;;12.73;3.80;;;4.10;99.90;;;;;;4842234;29;20058;-84
2021/12/07 09:46:42;;;;;;;16.00;3.88;;;4.30;99.90;;;;;;4842793;29;20050;-80
2021/12/07 09:49:09;;;;;;;14.52;4.13;;;4.40;99.90;;;;;;4842757;29;20129;-81
2021/12/07 09:51:35;;;;;;;10.95;4.10;;;4.50;99.90;;;;;;4844073;29;20513;-81
2021/12/07 09:54:05;;;;;;;9.93;3.97;;;4.60;99.90;;;;;;4843977;29;20081;-81
2021/12/07 09:56:31;;;;;;;13.18;3.42;;;4.60;99.90;;;;;;4842698;29;20098;-81
2021/12/07 09:58:59;;;;;;;19.27;8.60;;;4.70;99.90;;;;;;4842851;29;20058;-81
2021/12/07 10:01:28;;;;;;;17.88;5.85;;;4.80;99.90;;;;;;4842832;29;20076;-80
2021/12/07 10:03:54;;;;;;;60.38;22.65;;;4.90;99.90;;;;;;4842558;29;20075;-81
2021/12/07 10:06:20;;;;;;;39.60;14.27;;;4.90;99.90;;;;;;4842511;29;20058;-82
2021/12/07 10:08:48;;;;;;;32.47;12.13;;;5.00;99.90;;;;;;4842893;29;20053;-82
2021/12/07 10:11:16;;;;;;;76.85;31.48;;;5.10;99.90;;;;;;4842567;29;20046;-82
2021/12/07 10:13:44;;;;;;;71.85;30.20;;;5.20;99.90;;;;;;4842569;29;20046;-81
2021/12/07 10:16:12;;;;;;;27.73;12.18;;;5.20;99.90;;;;;;4842247;29;20514;-81
2021/12/07 10:18:39;;;;;;;24.40;10.65;;;5.30;99.90;;;;;;4842403;29;20049;-81
2021/12/07 10:21:31;;;;;;;17.17;5.70;;;5.40;99.90;;;;;;4842661;29;20054;-81
2021/12/07 10:24:07;;;;;;;13.98;5.68;;;5.40;99.90;;;;;;4842696;29;20046;-81
2021/12/07 10:26:35;;;;;;;12.00;5.30;;;5.50;99.90;;;;;;4842629;29;20120;-81
2021/12/07 10:29:15;;;;;;;12.10;4.72;;;5.50;99.90;;;;;;4842547;29;20057;-81
2021/12/07 10:31:50;;;;;;;20.98;6.15;;;5.50;99.90;;;;;;4842261;29;20115;-82
2021/12/07 10:34:25;;;;;;;14.73;5.28;;;5.50;99.90;;;;;;4842743;29;20054;-82
2021/12/07 10:36:55;;;;;;;19.75;7.30;;;5.50;99.90;;;;;;4842409;29;20058;-82
2021/12/07 10:39:27;;;;;;;15.88;8.70;;;5.40;99.90;;;;;;4842948;29;20106;-82
2021/12/07 10:42:04;;;;;;;15.53;6.47;;;5.40;99.90;;;;;;4842092;29;20133;-82
2021/12/07 10:44:33;;;;;;;23.70;8.85;;;5.40;99.90;;;;;;4842099;29;20058;-82
2021/12/07 10:47:05;;;;;;;16.35;7.82;;;5.40;99.90;;;;;;4842094;29;20057;-82
2021/12/07 10:49:33;;;;;;;15.57;8.80;;;5.40;99.90;;;;;;4842115;29;20502;-82
2021/12/07 10:52:04;;;;;;;19.38;7.03;;;5.50;99.90;;;;;;4842140;29;20076;-82
2021/12/07 10:54:42;;;;;;;16.38;6.85;;;5.50;99.90;;;;;;4842634;29;20082;-82
2021/12/07 10:57:15;;;;;;;19.20;6.90;;;5.60;99.90;;;;;;4841882;29;20060;-81
2021/12/07 11:00:00;;;;;;;12.43;6.00;;;5.70;99.90;;;;;;4842172;29;20136;-82
2021/12/07 11:02:30;;;;;;;16.88;5.32;;;5.70;99.90;;;;;;4842059;29;20054;-81
2021/12/07 11:04:57;;;;;;;25.17;7.13;;;5.80;99.90;;;;;;4842010;29;20392;-82
2021/12/07 11:07:28;;;;;;;21.40;6.50;;;5.80;99.90;;;;;;4841684;29;20077;-81
2021/12/07 11:10:14;;;;;;;17.20;5.22;;;5.80;99.90;;;;;;4841950;29;20049;-81
2021/12/07 11:12:59;;;;;;;17.65;4.97;;;5.80;99.90;;;;;;4841682;29;20106;-81
2021/12/07 11:15:27;;;;;;;14.20;5.97;;;5.90;99.90;;;;;;4843090;29;20122;-82
2021/12/07 11:17:57;;;;;;;13.55;6.07;;;5.80;99.90;;;;;;4841894;29;20108;-82
2021/12/07 11:20:23;;;;;;;13.25;4.65;;;5.90;99.90;;;;;;4841863;29;20054;-82
2021/12/07 11:22:57;;;;;;;12.32;4.22;;;6.00;99.90;;;;;;4842973;29;20118;-81
2021/12/07 11:31:23;;;;;;;15.13;4.07;;;6.10;99.90;;;;;;4842898;29;20058;-81
2021/12/07 11:33:54;;;;;;;12.52;3.90;;;6.10;99.90;;;;;;4842853;29;20060;-82
2021/12/07 11:36:28;;;;;;;13.52;3.80;;;6.10;99.90;;;;;;4842609;29;20533;-82
2021/12/07 11:38:56;;;;;;;18.40;4.63;;;6.10;99.90;;;;;;4841662;29;20188;-81
2021/12/07 11:41:32;;;;;;;14.75;4.28;;;6.10;99.90;;;;;;4841212;29;20168;-82
2021/12/07 11:44:07;;;;;;;14.48;4.40;;;6.10;99.90;;;;;;4841656;29;20057;-82
2021/12/07 11:46:36;;;;;;;11.73;4.57;;;6.20;99.90;;;;;;4841682;29;20042;-82
2021/12/07 11:49:16;;;;;;;17.23;4.43;;;6.20;99.90;;;;;;4841421;29;20050;-82
2021/12/07 11:51:45;;;;;;;20.95;5.18;;;6.20;99.90;;;;;;4841723;29;20053;-82
2021/12/07 11:54:12;;;;;;;18.95;4.90;;;6.20;99.90;;;;;;4842497;29;20582;-82
2021/12/07 11:56:38;;;;;;;16.23;4.53;;;6.10;99.90;;;;;;4842451;29;20050;-82
2021/12/07 11:59:05;;;;;;;17.15;4.63;;;6.10;99.90;;;;;;4841475;29;20054;-82
2021/12/07 12:01:31;;;;;;;14.70;4.45;;;6.10;99.90;;;;;;4843346;29;20519;-82
2021/12/07 12:03:56;;;;;;;12.05;4.90;;;6.20;99.90;;;;;;4844884;29;20095;-82
2021/12/07 12:06:22;;;;;;;16.88;5.10;;;6.20;99.90;;;;;;4844724;29;20182;-82
2021/12/07 12:08:50;;;;;;;12.02;3.90;;;6.20;99.90;;;;;;4844957;29;20045;-82
2021/12/07 12:11:21;;;;;;;14.43;3.60;;;6.20;99.90;;;;;;4844764;29;20053;-81
2021/12/07 12:14:07;;;;;;;13.27;3.42;;;6.20;99.90;;;;;;4844799;29;20182;-82
2021/12/07 12:16:58;;;;;;;14.95;4.60;;;6.20;99.90;;;;;;4844785;29;20065;-82
2021/12/07 12:19:51;;;;;;;13.02;3.72;;;6.20;99.90;;;;;;4846072;29;20056;-82
2021/12/07 12:22:29;;;;;;;10.55;4.13;;;6.20;99.90;;;;;;4845885;29;20106;-82
2021/12/07 12:24:59;;;;;;;10.02;3.40;;;6.20;99.90;;;;;;4845978;29;20048;-82
2021/12/07 12:27:32;;;;;;;13.10;4.00;;;6.20;99.90;;;;;;4844327;29;20054;-82
2021/12/07 12:29:59;;;;;;;10.75;3.00;;;6.20;99.90;;;;;;4844466;29;20057;-82
2021/12/07 12:32:30;;;;;;;19.95;4.47;;;6.20;99.90;;;;;;4844346;29;20064;-82
2021/12/07 12:34:56;;;;;;;16.05;3.85;;;6.20;99.90;;;;;;4845560;29;20088;-82
2021/12/07 12:37:26;;;;;;;13.90;3.50;;;6.20;99.90;;;;;;4844395;29;20050;-82
2021/12/07 12:39:58;;;;;;;17.08;4.65;;;6.20;99.90;;;;;;4844315;29;20498;-82
2021/12/07 12:42:24;;;;;;;9.90;4.18;;;6.20;99.90;;;;;;4843993;29;20089;-82
2021/12/07 12:44:57;;;;;;;15.90;3.80;;;6.30;99.90;;;;;;4845567;29;20094;-81
2021/12/07 12:47:26;;;;;;;;;;;6.20;99.90;;;;;;4845938;29;20034;-81
2021/12/07 12:49:52;;;;;;;14.43;3.65;;;6.20;99.90;;;;;;4844149;29;20019;-82
2021/12/07 12:52:37;;;;;;;13.75;4.40;;;6.20;99.90;;;;;;4845223;29;20136;-81
2021/12/07 12:55:04;;;;;;;10.90;4.10;;;6.20;99.90;;;;;;4844168;29;20065;-82
2021/12/07 12:57:29;;;;;;;12.95;3.45;;;6.20;99.90;;;;;;4844268;29;20046;-82
2021/12/07 12:59:55;;;;;;;14.65;4.30;;;6.10;99.90;;;;;;4844074;29;20053;-82
2021/12/07 13:02:21;;;;;;;12.30;4.20;;;6.10;99.90;;;;;;4844184;29;20050;-81
2021/12/07 13:05:05;;;;;;;10.38;4.00;;;6.00;99.90;;;;;;4843691;29;20519;-81
2021/12/07 13:07:31;;;;;;;14.60;3.83;;;6.00;99.90;;;;;;4844010;29;20053;-82
2021/12/07 13:10:02;;;;;;;18.05;5.38;;;6.00;99.90;;;;;;4845192;29;20505;-81
2021/12/07 13:12:38;;;;;;;18.13;4.65;;;6.00;99.90;;;;;;4843639;29;20046;-81
2021/12/07 13:15:06;;;;;;;9.68;2.97;;;6.00;99.90;;;;;;4843509;29;20406;-81
2021/12/07 13:17:39;;;;;;;18.52;4.68;;;6.00;99.90;;;;;;4843598;29;20046;-81
2021/12/07 13:20:08;;;;;;;11.80;3.58;;;5.90;99.90;;;;;;4843518;29;20054;-81
2021/12/07 13:22:37;;;;;;;14.52;4.25;;;6.00;99.90;;;;;;4843600;29;20077;-81
2021/12/07 13:25:24;;;;;;;17.17;4.43;;;5.90;99.90;;;;;;4843679;29;20179;-81
2021/12/07 13:28:11;;;;;;;14.18;3.63;;;5.80;99.90;;;;;;4843669;29;20406;-82
2021/12/07 13:30:49;;;;;;;16.60;4.78;;;5.80;99.90;;;;;;4843629;29;20050;-81
2021/12/07 13:33:38;;;;;;;14.85;4.22;;;5.80;99.90;;;;;;4843590;29;20137;-81
2021/12/07 13:36:30;;;;;;;19.60;4.68;;;5.80;99.90;;;;;;4843183;29;20057;-81
2021/12/07 13:39:19;;;;;;;17.77;4.88;;;5.70;99.90;;;;;;4843737;29;20133;-81
2021/12/07 13:41:46;;;;;;;14.57;4.07;;;5.70;99.90;;;;;;4842985;29;20060;-82
2021/12/07 13:44:12;;;;;;;25.23;4.43;;;5.70;99.90;;;;;;4844318;29;20061;-82
2021/12/07 13:46:38;;;;;;;18.77;4.90;;;5.70;99.90;;;;;;4843281;29;20049;-82
2021/12/07 13:49:07;;;;;;;14.75;5.47;;;5.60;99.90;;;;;;4843306;29;20050;-82
2021/12/07 13:51:35;;;;;;;13.57;4.82;;;5.60;99.90;;;;;;4844503;29;20078;-82
2021/12/07 13:54:04;;;;;;;11.43;4.63;;;5.60;99.90;;;;;;4843160;29;20057;-82
2021/12/07 13:56:38;;;;;;;11.93;4.13;;;5.60;99.90;;;;;;4842824;29;20057;-81
2021/12/07 13:59:12;;;;;;;21.40;5.72;;;5.60;99.90;;;;;;4844310;29;20073;-81
2021/12/07 14:01:41;;;;;;;17.15;4.25;;;5.50;99.90;;;;;;4844353;29;20061;-82
2021/12/07 14:04:07;;;;;;;13.02;5.32;;;5.50;99.90;;;;;;4842887;29;20495;-81
2021/12/07 14:06:35;;;;;;;15.68;5.13;;;5.60;99.90;;;;;;4844194;29;20042;-82
2021/12/07 14:09:09;;;;;;;15.38;4.60;;;5.60;99.90;;;;;;4842822;29;20042;-82
2021/12/07 14:11:36;;;;;;;13.48;4.70;;;5.50;99.90;;;;;;4842843;29;20494;-82
2021/12/07 14:14:14;;;;;;;12.30;4.22;;;5.40;99.90;;;;;;4844046;29;20042;-81
2021/12/07 14:16:40;;;;;;;13.77;4.43;;;5.40;99.90;;;;;;4842509;29;20089;-81
2021/12/07 14:19:06;;;;;;;15.38;4.32;;;5.40;99.90;;;;;;4842534;29;20054;-81
2021/12/07 14:21:32;;;;;;;13.82;4.35;;;5.40;99.90;;;;;;4842505;29;20050;-82
2021/12/07 14:24:05;;;;;;;27.25;6.10;;;5.40;99.90;;;;;;4841923;29;20054;-81
2021/12/07 14:26:36;;;;;;;26.52;9.63;;;5.30;99.90;;;;;;4842373;29;20051;-82
2021/12/07 14:29:07;;;;;;;22.42;6.82;;;5.20;99.90;;;;;;4843849;29;20070;-81
2021/12/07 14:31:46;;;;;;;18.50;6.25;;;5.20;99.90;;;;;;4842290;29;20054;-82
2021/12/07 14:34:16;;;;;;;17.20;5.63;;;5.20;99.90;;;;;;4842687;29;20053;-81
2021/12/07 14:36:47;;;;;;;29.45;6.90;;;5.20;99.90;;;;;;4842110;29;20495;-81